sensor_id;sensor_type;location;lat;lon;timestamp;temperature;humidity
24402;DHT22;12539;48.808;11.292;2023-02-21T00:01:08;7.30;99.90
24402;DHT22;12539;48.808;11.292;2023-02-21T00:03:52;7.30;99.90
24402;DHT22;12539;48.808;11.292;2023-02-21T00:06:43;7.30;99.90
24402;DHT22;12539;48.808;11.292;2023-02-21T00:09:27;7.30;99.90
24402;DHT22;12539;48.808;11.292;2023-02-21T00:12:12;7.20;99.90
24402;DHT22;12539;48.808;11.292;2023-02-21T00:14:56;7.20;99.90
24402;DHT22;12539;48.808;11.292;2023-02-21T00:17:40;7.20;99.90
24402;DHT22;12539;48.808;11.292;2023-02-21T00:20:24;7.20;99.90
24402;DHT22;12539;48.808;11.292;2023-02-21T00:23:09;7.20;99.90
24402;DHT22;12539;48.808;11.292;2023-02-21T00:25:53;7.20;99.90
24402;DHT22;12539;48.808;11.292;2023-02-21T00:28:37;7.10;99.90
24402;DHT22;12539;48.808;11.292;2023-02-21T00:31:21;7.10;99.90
24402;DHT22;12539;48.808;11.292;2023-02-21T00:34:05;7.10;99.90
24402;DHT22;12539;48.808;11.292;2023-02-21T00:36:51;7.10;99.90
24402;DHT22;12539;48.808;11.292;2023-02-21T00:39:35;7.10;99.90
24402;DHT22;12539;48.808;11.292;2023-02-21T00:42:20;7.00;99.90
24402;DHT22;12539;48.808;11.292;2023-02-21T00:45:04;7.00;99.90
24402;DHT22;12539;48.808;11.292;2023-02-21T00:47:48;7.00;99.90
24402;DHT22;12539;48.808;11.292;2023-02-21T00:50:32;6.90;99.90
24402;DHT22;12539;48.808;11.292;2023-02-21T00:53:16;6.90;99.90
24402;DHT22;12539;48.808;11.292;2023-02-21T00:56:01;7.00;99.90
24402;DHT22;12539;48.808;11.292;2023-02-21T00:58:45;7.00;99.90
24402;DHT22;12539;48.808;11.292;2023-02-21T01:01:29;6.90;99.90
24402;DHT22;12539;48.808;11.292;2023-02-21T01:04:13;6.90;99.90
24402;DHT22;12539;48.808;11.292;2023-02-21T01:06:57;6.90;99.90
24402;DHT22;12539;48.808;11.292;2023-02-21T01:09:41;6.80;99.90
24402;DHT22;12539;48.808;11.292;2023-02-21T01:12:25;6.90;99.90
24402;DHT22;12539;48.808;11.292;2023-02-21T01:15:10;6.90;99.90
24402;DHT22;12539;48.808;11.292;2023-02-21T01:17:54;6.90;99.90
24402;DHT22;12539;48.808;11.292;2023-02-21T01:20:38;7.00;99.90
24402;DHT22;12539;48.808;11.292;2023-02-21T01:23:22;6.90;99.90
24402;DHT22;12539;48.808;11.292;2023-02-21T01:26:08;6.90;99.90
24402;DHT22;12539;48.808;11.292;2023-02-21T01:28:52;6.80;99.90
24402;DHT22;12539;48.808;11.292;2023-02-21T01:31:36;6.70;99.90
24402;DHT22;12539;48.808;11.292;2023-02-21T01:34:20;6.60;99.90
24402;DHT22;12539;48.808;11.292;2023-02-21T01:37:04;6.50;99.90
24402;DHT22;12539;48.808;11.292;2023-02-21T01:39:48;6.50;99.90
24402;DHT22;12539;48.808;11.292;2023-02-21T01:42:32;6.60;99.90
24402;DHT22;12539;48.808;11.292;2023-02-21T01:48:14;6.50;99.90
24402;DHT22;12539;48.808;11.292;2023-02-21T01:51:01;6.50;99.90
24402;DHT22;12539;48.808;11.292;2023-02-21T01:53:45;6.50;99.90
24402;DHT22;12539;48.808;11.292;2023-02-21T01:56:30;6.30;99.90
24402;DHT22;12539;48.808;11.292;2023-02-21T01:59:16;6.20;99.90
24402;DHT22;12539;48.808;11.292;2023-02-21T02:02:17;6.20;99.90
24402;DHT22;12539;48.808;11.292;2023-02-21T02:05:04;6.20;99.90
24402;DHT22;12539;48.808;11.292;2023-02-21T02:07:48;6.30;99.90
24402;DHT22;12539;48.808;11.292;2023-02-21T02:10:34;6.30;99.90
24402;DHT22;12539;48.808;11.292;2023-02-21T02:16:31;6.30;99.90
24402;DHT22;12539;48.808;11.292;2023-02-21T02:24:43;6.30;99.90
24402;DHT22;12539;48.808;11.292;2023-02-21T02:27:40;6.20;99.90
24402;DHT22;12539;48.808;11.292;2023-02-21T02:35:20;6.20;99.90
24402;DHT22;12539;48.808;11.292;2023-02-21T02:37:54;6.20;99.90
24402;DHT22;12539;48.808;11.292;2023-02-21T02:40:50;6.20;99.90
24402;DHT22;12539;48.808;11.292;2023-02-21T02:43:24;6.20;99.90
24402;DHT22;12539;48.808;11.292;2023-02-21T02:48:32;6.30;99.90
24402;DHT22;12539;48.808;11.292;2023-02-21T02:51:02;6.20;99.90
24402;DHT22;12539;48.808;11.292;2023-02-21T02:53:28;6.20;99.90
24402;DHT22;12539;48.808;11.292;2023-02-21T02:56:04;6.20;99.90
24402;DHT22;12539;48.808;11.292;2023-02-21T02:58:36;6.20;99.90
24402;DHT22;12539;48.808;11.292;2023-02-21T03:06:49;6.20;99.90
24402;DHT22;12539;48.808;11.292;2023-02-21T03:09:44;6.00;99.90
24402;DHT22;12539;48.808;11.292;2023-02-21T03:12:35;5.90;99.90
24402;DHT22;12539;48.808;11.292;2023-02-21T03:15:10;5.80;99.90
24402;DHT22;12539;48.808;11.292;2023-02-21T03:17:50;5.80;99.90
24402;DHT22;12539;48.808;11.292;2023-02-21T03:20:16;5.80;99.90
24402;DHT22;12539;48.808;11.292;2023-02-21T03:22:43;5.80;99.90
24402;DHT22;12539;48.808;11.292;2023-02-21T03:25:10;5.80;99.90
24402;DHT22;12539;48.808;11.292;2023-02-21T03:27:39;5.80;99.90
24402;DHT22;12539;48.808;11.292;2023-02-21T03:30:07;5.80;99.90
24402;DHT22;12539;48.808;11.292;2023-02-21T03:32:40;5.80;99.90
24402;DHT22;12539;48.808;11.292;2023-02-21T03:35:07;5.80;99.90
24402;DHT22;12539;48.808;11.292;2023-02-21T03:37:38;5.90;99.90
24402;DHT22;12539;48.808;11.292;2023-02-21T03:40:07;5.90;99.90
24402;DHT22;12539;48.808;11.292;2023-02-21T03:42:34;5.80;99.90
24402;DHT22;12539;48.808;11.292;2023-02-21T03:44:59;5.70;99.90
24402;DHT22;12539;48.808;11.292;2023-02-21T03:47:25;5.60;99.90
24402;DHT22;12539;48.808;11.292;2023-02-21T03:49:51;5.50;99.90
24402;DHT22;12539;48.808;11.292;2023-02-21T03:52:16;5.50;99.90
24402;DHT22;12539;48.808;11.292;2023-02-21T03:54:45;5.50;99.90
24402;DHT22;12539;48.808;11.292;2023-02-21T03:57:11;5.60;99.90
24402;DHT22;12539;48.808;11.292;2023-02-21T03:59:39;5.60;99.90
24402;DHT22;12539;48.808;11.292;2023-02-21T04:02:05;5.70;99.90
24402;DHT22;12539;48.808;11.292;2023-02-21T04:04:31;5.70;99.90
24402;DHT22;12539;48.808;11.292;2023-02-21T04:06:56;5.70;99.90
24402;DHT22;12539;48.808;11.292;2023-02-21T04:09:22;5.80;99.90
24402;DHT22;12539;48.808;11.292;2023-02-21T04:11:50;5.70;99.90
24402;DHT22;12539;48.808;11.292;2023-02-21T04:14:15;5.70;99.90
24402;DHT22;12539;48.808;11.292;2023-02-21T04:16:41;5.70;99.90
24402;DHT22;12539;48.808;11.292;2023-02-21T04:19:07;5.70;99.90
24402;DHT22;12539;48.808;11.292;2023-02-21T04:21:33;5.70;99.90
24402;DHT22;12539;48.808;11.292;2023-02-21T04:23:58;5.60;99.90
24402;DHT22;12539;48.808;11.292;2023-02-21T04:26:24;5.60;99.90
24402;DHT22;12539;48.808;11.292;2023-02-21T04:28:50;5.60;99.90
24402;DHT22;12539;48.808;11.292;2023-02-21T04:31:17;5.70;99.90
24402;DHT22;12539;48.808;11.292;2023-02-21T04:33:43;5.60;99.90
24402;DHT22;12539;48.808;11.292;2023-02-21T04:36:12;5.70;99.90
24402;DHT22;12539;48.808;11.292;2023-02-21T04:38:37;5.70;99.90
24402;DHT22;12539;48.808;11.292;2023-02-21T04:41:04;5.70;99.90
24402;DHT22;12539;48.808;11.292;2023-02-21T04:43:29;5.60;99.90
24402;DHT22;12539;48.808;11.292;2023-02-21T04:45:55;5.60;99.90
24402;DHT22;12539;48.808;11.292;2023-02-21T04:48:21;5.60;99.90
24402;DHT22;12539;48.808;11.292;2023-02-21T04:50:47;5.50;99.90
24402;DHT22;12539;48.808;11.292;2023-02-21T04:53:12;5.50;99.90
24402;DHT22;12539;48.808;11.292;2023-02-21T04:55:38;5.50;99.90
24402;DHT22;12539;48.808;11.292;2023-02-21T04:58:04;5.50;99.90
24402;DHT22;12539;48.808;11.292;2023-02-21T05:00:30;5.50;99.90
24402;DHT22;12539;48.808;11.292;2023-02-21T05:02:56;5.50;99.90
24402;DHT22;12539;48.808;11.292;2023-02-21T05:05:21;5.50;99.90
24402;DHT22;12539;48.808;11.292;2023-02-21T05:07:47;5.60;99.90
24402;DHT22;12539;48.808;11.292;2023-02-21T05:10:15;5.60;99.90
24402;DHT22;12539;48.808;11.292;2023-02-21T05:12:40;5.60;99.90
24402;DHT22;12539;48.808;11.292;2023-02-21T05:15:07;5.60;99.90
24402;DHT22;12539;48.808;11.292;2023-02-21T05:17:33;5.50;99.90
24402;DHT22;12539;48.808;11.292;2023-02-21T05:19:59;5.50;99.90
24402;DHT22;12539;48.808;11.292;2023-02-21T05:22:25;5.50;99.90
24402;DHT22;12539;48.808;11.292;2023-02-21T05:24:50;5.40;99.90
24402;DHT22;12539;48.808;11.292;2023-02-21T05:27:18;5.40;99.90
24402;DHT22;12539;48.808;11.292;2023-02-21T05:29:48;5.30;99.90
24402;DHT22;12539;48.808;11.292;2023-02-21T05:32:15;5.30;99.90
24402;DHT22;12539;48.808;11.292;2023-02-21T05:34:41;5.20;99.90
24402;DHT22;12539;48.808;11.292;2023-02-21T05:37:13;5.30;99.90
24402;DHT22;12539;48.808;11.292;2023-02-21T05:39:38;5.30;99.90
24402;DHT22;12539;48.808;11.292;2023-02-21T05:42:05;5.30;99.90
24402;DHT22;12539;48.808;11.292;2023-02-21T05:44:30;5.30;99.90
24402;DHT22;12539;48.808;11.292;2023-02-21T05:46:56;5.30;99.90
24402;DHT22;12539;48.808;11.292;2023-02-21T05:49:21;5.30;99.90
24402;DHT22;12539;48.808;11.292;2023-02-21T05:51:47;5.20;99.90
24402;DHT22;12539;48.808;11.292;2023-02-21T05:54:16;5.30;99.90
24402;DHT22;12539;48.808;11.292;2023-02-21T05:56:45;5.40;99.90
24402;DHT22;12539;48.808;11.292;2023-02-21T05:59:12;5.40;99.90
24402;DHT22;12539;48.808;11.292;2023-02-21T06:01:38;5.40;99.90
24402;DHT22;12539;48.808;11.292;2023-02-21T06:04:04;5.30;99.90
24402;DHT22;12539;48.808;11.292;2023-02-21T06:06:35;5.20;99.90
24402;DHT22;12539;48.808;11.292;2023-02-21T06:09:01;5.20;99.90
24402;DHT22;12539;48.808;11.292;2023-02-21T06:11:29;5.20;99.90
24402;DHT22;12539;48.808;11.292;2023-02-21T06:13:57;5.30;99.90
24402;DHT22;12539;48.808;11.292;2023-02-21T06:16:24;5.30;99.90
24402;DHT22;12539;48.808;11.292;2023-02-21T06:18:51;5.30;99.90
24402;DHT22;12539;48.808;11.292;2023-02-21T06:21:17;5.30;99.90
24402;DHT22;12539;48.808;11.292;2023-02-21T06:23:43;5.40;99.90
24402;DHT22;12539;48.808;11.292;2023-02-21T06:26:10;5.50;99.90
24402;DHT22;12539;48.808;11.292;2023-02-21T06:28:35;5.70;99.90
24402;DHT22;12539;48.808;11.292;2023-02-21T06:31:03;5.70;99.90
24402;DHT22;12539;48.808;11.292;2023-02-21T06:33:29;5.80;99.90
24402;DHT22;12539;48.808;11.292;2023-02-21T06:35:55;5.90;99.90
24402;DHT22;12539;48.808;11.292;2023-02-21T06:38:21;6.00;99.90
24402;DHT22;12539;48.808;11.292;2023-02-21T06:40:46;6.00;99.90
24402;DHT22;12539;48.808;11.292;2023-02-21T06:43:12;6.00;99.90
24402;DHT22;12539;48.808;11.292;2023-02-21T06:45:38;6.10;99.90
24402;DHT22;12539;48.808;11.292;2023-02-21T06:48:03;6.10;99.90
24402;DHT22;12539;48.808;11.292;2023-02-21T06:50:29;6.00;99.90
24402;DHT22;12539;48.808;11.292;2023-02-21T06:52:56;5.90;99.90
24402;DHT22;12539;48.808;11.292;2023-02-21T06:55:21;6.00;99.90
24402;DHT22;12539;48.808;11.292;2023-02-21T06:57:48;5.90;99.90
24402;DHT22;12539;48.808;11.292;2023-02-21T07:00:15;5.90;99.90
24402;DHT22;12539;48.808;11.292;2023-02-21T07:02:42;5.80;99.90
24402;DHT22;12539;48.808;11.292;2023-02-21T07:05:08;5.70;99.90
24402;DHT22;12539;48.808;11.292;2023-02-21T07:07:33;5.60;99.90
24402;DHT22;12539;48.808;11.292;2023-02-21T07:09:59;5.70;99.90
24402;DHT22;12539;48.808;11.292;2023-02-21T07:12:25;5.80;99.90
24402;DHT22;12539;48.808;11.292;2023-02-21T07:14:53;6.00;99.90
24402;DHT22;12539;48.808;11.292;2023-02-21T07:17:19;6.20;99.90
24402;DHT22;12539;48.808;11.292;2023-02-21T07:19:44;6.40;99.90
24402;DHT22;12539;48.808;11.292;2023-02-21T07:22:10;6.40;99.90
24402;DHT22;12539;48.808;11.292;2023-02-21T07:24:36;6.50;99.90
24402;DHT22;12539;48.808;11.292;2023-02-21T07:27:02;6.60;99.90
24402;DHT22;12539;48.808;11.292;2023-02-21T07:29:28;6.60;99.90
24402;DHT22;12539;48.808;11.292;2023-02-21T07:31:54;6.60;99.90
24402;DHT22;12539;48.808;11.292;2023-02-21T07:34:19;6.70;99.90
24402;DHT22;12539;48.808;11.292;2023-02-21T07:36:47;6.80;99.90
24402;DHT22;12539;48.808;11.292;2023-02-21T07:39:13;6.90;99.90
24402;DHT22;12539;48.808;11.292;2023-02-21T07:41:38;6.90;99.90
24402;DHT22;12539;48.808;11.292;2023-02-21T07:44:04;7.00;99.90
24402;DHT22;12539;48.808;11.292;2023-02-21T07:46:32;7.00;99.90
24402;DHT22;12539;48.808;11.292;2023-02-21T07:48:59;6.80;99.90
24402;DHT22;12539;48.808;11.292;2023-02-21T07:51:29;6.70;99.90
24402;DHT22;12539;48.808;11.292;2023-02-21T07:53:56;6.70;99.90
24402;DHT22;12539;48.808;11.292;2023-02-21T07:56:22;6.70;99.90
24402;DHT22;12539;48.808;11.292;2023-02-21T07:58:48;6.80;99.90
24402;DHT22;12539;48.808;11.292;2023-02-21T08:01:14;6.80;99.90
24402;DHT22;12539;48.808;11.292;2023-02-21T08:03:40;6.90;99.90
24402;DHT22;12539;48.808;11.292;2023-02-21T08:06:07;6.90;99.90
24402;DHT22;12539;48.808;11.292;2023-02-21T08:08:33;7.00;99.90
24402;DHT22;12539;48.808;11.292;2023-02-21T08:10:58;7.00;99.90
24402;DHT22;12539;48.808;11.292;2023-02-21T08:13:24;7.10;99.90
24402;DHT22;12539;48.808;11.292;2023-02-21T08:15:49;7.10;99.90
24402;DHT22;12539;48.808;11.292;2023-02-21T08:18:17;7.20;99.90
24402;DHT22;12539;48.808;11.292;2023-02-21T08:20:45;7.30;99.90
24402;DHT22;12539;48.808;11.292;2023-02-21T08:23:11;7.30;99.90
24402;DHT22;12539;48.808;11.292;2023-02-21T08:25:37;7.30;99.90
24402;DHT22;12539;48.808;11.292;2023-02-21T08:28:03;7.40;99.90
24402;DHT22;12539;48.808;11.292;2023-02-21T08:30:28;7.40;99.90
24402;DHT22;12539;48.808;11.292;2023-02-21T08:32:54;7.50;99.90
24402;DHT22;12539;48.808;11.292;2023-02-21T08:35:20;7.60;99.90
24402;DHT22;12539;48.808;11.292;2023-02-21T08:37:47;7.60;99.90
24402;DHT22;12539;48.808;11.292;2023-02-21T08:40:14;7.70;99.90
24402;DHT22;12539;48.808;11.292;2023-02-21T08:42:40;7.80;99.90
24402;DHT22;12539;48.808;11.292;2023-02-21T08:45:07;7.90;99.90
24402;DHT22;12539;48.808;11.292;2023-02-21T08:47:35;8.00;99.90
24402;DHT22;12539;48.808;11.292;2023-02-21T08:50:01;8.10;99.90
24402;DHT22;12539;48.808;11.292;2023-02-21T08:52:26;8.20;99.90
24402;DHT22;12539;48.808;11.292;2023-02-21T08:54:52;8.30;99.90
24402;DHT22;12539;48.808;11.292;2023-02-21T08:57:18;8.30;99.90
24402;DHT22;12539;48.808;11.292;2023-02-21T08:59:44;8.40;99.90
24402;DHT22;12539;48.808;11.292;2023-02-21T09:02:18;8.50;99.90
24402;DHT22;12539;48.808;11.292;2023-02-21T09:04:44;8.60;99.90
24402;DHT22;12539;48.808;11.292;2023-02-21T09:07:15;8.70;99.90
24402;DHT22;12539;48.808;11.292;2023-02-21T09:09:42;8.80;99.90
24402;DHT22;12539;48.808;11.292;2023-02-21T09:12:08;8.90;99.90
24402;DHT22;12539;48.808;11.292;2023-02-21T09:14:35;9.00;99.90
24402;DHT22;12539;48.808;11.292;2023-02-21T09:17:01;9.00;99.90
24402;DHT22;12539;48.808;11.292;2023-02-21T09:19:27;9.10;99.90
24402;DHT22;12539;48.808;11.292;2023-02-21T09:21:53;9.10;99.90
24402;DHT22;12539;48.808;11.292;2023-02-21T09:24:23;9.10;99.90
24402;DHT22;12539;48.808;11.292;2023-02-21T09:26:54;9.20;99.90
24402;DHT22;12539;48.808;11.292;2023-02-21T09:29:21;9.30;99.90
24402;DHT22;12539;48.808;11.292;2023-02-21T09:31:48;9.30;99.90
24402;DHT22;12539;48.808;11.292;2023-02-21T09:34:14;9.40;99.90
24402;DHT22;12539;48.808;11.292;2023-02-21T09:36:40;9.50;99.90
24402;DHT22;12539;48.808;11.292;2023-02-21T09:39:07;9.60;99.90
24402;DHT22;12539;48.808;11.292;2023-02-21T09:41:33;9.60;99.90
24402;DHT22;12539;48.808;11.292;2023-02-21T09:44:00;9.60;99.90
24402;DHT22;12539;48.808;11.292;2023-02-21T09:46:39;9.70;99.90
24402;DHT22;12539;48.808;11.292;2023-02-21T09:49:24;9.80;99.90
24402;DHT22;12539;48.808;11.292;2023-02-21T09:51:52;9.80;99.90
24402;DHT22;12539;48.808;11.292;2023-02-21T09:54:32;9.90;99.90
24402;DHT22;12539;48.808;11.292;2023-02-21T09:57:01;9.90;99.90
24402;DHT22;12539;48.808;11.292;2023-02-21T09:59:28;9.90;99.90
24402;DHT22;12539;48.808;11.292;2023-02-21T10:10:00;10.10;99.90
24402;DHT22;12539;48.808;11.292;2023-02-21T10:20:56;10.40;99.90
24402;DHT22;12539;48.808;11.292;2023-02-21T10:23:48;10.40;99.90
24402;DHT22;12539;48.808;11.292;2023-02-21T10:26:25;10.40;99.90
24402;DHT22;12539;48.808;11.292;2023-02-21T10:28:52;10.50;99.90
24402;DHT22;12539;48.808;11.292;2023-02-21T10:31:29;10.50;99.90
24402;DHT22;12539;48.808;11.292;2023-02-21T10:33:56;10.60;99.90
24402;DHT22;12539;48.808;11.292;2023-02-21T10:36:25;10.70;99.90
24402;DHT22;12539;48.808;11.292;2023-02-21T10:41:29;10.70;99.90
24402;DHT22;12539;48.808;11.292;2023-02-21T10:44:00;10.80;99.90
24402;DHT22;12539;48.808;11.292;2023-02-21T10:46:39;10.80;99.90
24402;DHT22;12539;48.808;11.292;2023-02-21T10:49:22;10.90;99.90
24402;DHT22;12539;48.808;11.292;2023-02-21T10:52:08;11.00;99.90
24402;DHT22;12539;48.808;11.292;2023-02-21T10:54:33;11.20;99.90
24402;DHT22;12539;48.808;11.292;2023-02-21T10:57:00;11.30;99.90
24402;DHT22;12539;48.808;11.292;2023-02-21T10:59:28;11.40;99.90
24402;DHT22;12539;48.808;11.292;2023-02-21T11:01:54;11.50;99.90
24402;DHT22;12539;48.808;11.292;2023-02-21T11:07:05;11.70;99.90
24402;DHT22;12539;48.808;11.292;2023-02-21T11:09:36;11.80;99.90
24402;DHT22;12539;48.808;11.292;2023-02-21T11:14:42;11.80;99.90
24402;DHT22;12539;48.808;11.292;2023-02-21T11:17:19;11.80;99.90
24402;DHT22;12539;48.808;11.292;2023-02-21T11:19:52;11.80;99.90
24402;DHT22;12539;48.808;11.292;2023-02-21T11:22:36;11.80;99.90
24402;DHT22;12539;48.808;11.292;2023-02-21T11:28:20;11.80;99.90
24402;DHT22;12539;48.808;11.292;2023-02-21T11:33:59;11.80;99.90
24402;DHT22;12539;48.808;11.292;2023-02-21T11:36:33;11.80;99.90
24402;DHT22;12539;48.808;11.292;2023-02-21T11:39:22;11.80;99.90
24402;DHT22;12539;48.808;11.292;2023-02-21T11:41:56;11.80;99.90
24402;DHT22;12539;48.808;11.292;2023-02-21T11:46:51;11.80;99.90
24402;DHT22;12539;48.808;11.292;2023-02-21T11:52:13;11.80;99.90
24402;DHT22;12539;48.808;11.292;2023-02-21T11:54:40;11.90;99.90
24402;DHT22;12539;48.808;11.292;2023-02-21T12:00:10;12.00;99.90
24402;DHT22;12539;48.808;11.292;2023-02-21T12:02:48;11.90;99.90
24402;DHT22;12539;48.808;11.292;2023-02-21T12:22:03;12.20;99.90
24402;DHT22;12539;48.808;11.292;2023-02-21T12:24:55;12.20;99.90
24402;DHT22;12539;48.808;11.292;2023-02-21T12:32:48;12.20;99.90
24402;DHT22;12539;48.808;11.292;2023-02-21T12:46:47;12.30;98.50
24402;DHT22;12539;48.808;11.292;2023-02-21T12:52:25;12.40;98.80
24402;DHT22;12539;48.808;11.292;2023-02-21T12:55:20;12.40;99.20
24402;DHT22;12539;48.808;11.292;2023-02-21T13:03:05;12.40;98.60
24402;DHT22;12539;48.808;11.292;2023-02-21T13:05:47;12.50;98.50
24402;DHT22;12539;48.808;11.292;2023-02-21T13:08:26;12.50;98.20
24402;DHT22;12539;48.808;11.292;2023-02-21T13:11:13;12.50;98.30
24402;DHT22;12539;48.808;11.292;2023-02-21T13:13:41;12.60;97.80
24402;DHT22;12539;48.808;11.292;2023-02-21T13:16:08;12.50;97.80
24402;DHT22;12539;48.808;11.292;2023-02-21T13:18:41;12.60;98.10
24402;DHT22;12539;48.808;11.292;2023-02-21T13:23:52;12.70;97.60
24402;DHT22;12539;48.808;11.292;2023-02-21T13:29:39;12.60;97.20
24402;DHT22;12539;48.808;11.292;2023-02-21T13:32:14;12.70;97.00
24402;DHT22;12539;48.808;11.292;2023-02-21T13:35:09;12.70;97.00
24402;DHT22;12539;48.808;11.292;2023-02-21T13:37:55;12.70;97.40
24402;DHT22;12539;48.808;11.292;2023-02-21T13:40:51;12.80;96.90
24402;DHT22;12539;48.808;11.292;2023-02-21T13:43:30;12.80;95.70
24402;DHT22;12539;48.808;11.292;2023-02-21T13:57:48;12.80;95.60
24402;DHT22;12539;48.808;11.292;2023-02-21T14:08:30;12.90;95.30
24402;DHT22;12539;48.808;11.292;2023-02-21T14:16:18;12.90;95.30
24402;DHT22;12539;48.808;11.292;2023-02-21T14:24:14;12.90;94.40
24402;DHT22;12539;48.808;11.292;2023-02-21T14:26:44;12.90;93.60
24402;DHT22;12539;48.808;11.292;2023-02-21T14:29:35;13.00;94.60
24402;DHT22;12539;48.808;11.292;2023-02-21T14:34:32;13.00;93.90
24402;DHT22;12539;48.808;11.292;2023-02-21T14:37:19;13.00;94.10
24402;DHT22;12539;48.808;11.292;2023-02-21T14:43:00;13.00;94.60
24402;DHT22;12539;48.808;11.292;2023-02-21T14:51:07;12.90;93.80
24402;DHT22;12539;48.808;11.292;2023-02-21T14:59:24;13.00;93.70
24402;DHT22;12539;48.808;11.292;2023-02-21T15:05:02;13.00;93.70
24402;DHT22;12539;48.808;11.292;2023-02-21T15:10:25;12.90;93.50
24402;DHT22;12539;48.808;11.292;2023-02-21T15:13:03;12.80;93.70
24402;DHT22;12539;48.808;11.292;2023-02-21T15:15:34;12.80;93.90
24402;DHT22;12539;48.808;11.292;2023-02-21T15:18:22;12.80;94.00
24402;DHT22;12539;48.808;11.292;2023-02-21T15:21:01;12.80;93.90
24402;DHT22;12539;48.808;11.292;2023-02-21T15:23:27;12.80;93.80
24402;DHT22;12539;48.808;11.292;2023-02-21T15:26:08;12.80;94.00
24402;DHT22;12539;48.808;11.292;2023-02-21T15:28:39;12.90;93.70
24402;DHT22;12539;48.808;11.292;2023-02-21T15:31:07;12.90;94.00
24402;DHT22;12539;48.808;11.292;2023-02-21T15:33:38;12.90;94.10
24402;DHT22;12539;48.808;11.292;2023-02-21T15:36:08;12.90;95.20
24402;DHT22;12539;48.808;11.292;2023-02-21T15:44:06;12.90;97.00
24402;DHT22;12539;48.808;11.292;2023-02-21T15:46:44;12.90;97.40
24402;DHT22;12539;48.808;11.292;2023-02-21T15:51:43;12.90;98.70
24402;DHT22;12539;48.808;11.292;2023-02-21T15:54:20;12.90;99.20
24402;DHT22;12539;48.808;11.292;2023-02-21T15:56:47;12.80;99.30
24402;DHT22;12539;48.808;11.292;2023-02-21T15:59:26;12.80;99.60
24402;DHT22;12539;48.808;11.292;2023-02-21T16:04:44;12.70;99.90
24402;DHT22;12539;48.808;11.292;2023-02-21T16:07:49;12.70;99.90
24402;DHT22;12539;48.808;11.292;2023-02-21T16:10:20;12.70;99.90
24402;DHT22;12539;48.808;11.292;2023-02-21T16:12:54;12.60;99.90
24402;DHT22;12539;48.808;11.292;2023-02-21T16:15:32;12.60;99.90
24402;DHT22;12539;48.808;11.292;2023-02-21T16:18:03;12.60;99.90
24402;DHT22;12539;48.808;11.292;2023-02-21T16:20:31;12.50;99.90
24402;DHT22;12539;48.808;11.292;2023-02-21T16:26:01;12.30;99.90
24402;DHT22;12539;48.808;11.292;2023-02-21T16:28:29;12.20;99.90
24402;DHT22;12539;48.808;11.292;2023-02-21T16:30:57;12.10;99.90
24402;DHT22;12539;48.808;11.292;2023-02-21T16:33:26;12.10;99.90
24402;DHT22;12539;48.808;11.292;2023-02-21T16:35:52;12.00;99.90
24402;DHT22;12539;48.808;11.292;2023-02-21T16:38:19;11.90;99.90
24402;DHT22;12539;48.808;11.292;2023-02-21T16:40:46;11.80;99.90
24402;DHT22;12539;48.808;11.292;2023-02-21T16:43:22;11.80;99.90
24402;DHT22;12539;48.808;11.292;2023-02-21T16:45:49;11.70;99.90
24402;DHT22;12539;48.808;11.292;2023-02-21T16:48:25;11.60;99.90
24402;DHT22;12539;48.808;11.292;2023-02-21T16:50:53;11.50;99.90
24402;DHT22;12539;48.808;11.292;2023-02-21T16:53:21;11.40;99.90
24402;DHT22;12539;48.808;11.292;2023-02-21T16:55:47;11.30;99.90
24402;DHT22;12539;48.808;11.292;2023-02-21T16:58:25;11.30;99.90
24402;DHT22;12539;48.808;11.292;2023-02-21T17:00:52;11.20;99.90
24402;DHT22;12539;48.808;11.292;2023-02-21T17:03:19;11.10;99.90
24402;DHT22;12539;48.808;11.292;2023-02-21T17:05:46;11.00;99.90
24402;DHT22;12539;48.808;11.292;2023-02-21T17:08:12;10.90;99.90
24402;DHT22;12539;48.808;11.292;2023-02-21T17:10:38;10.80;99.90
24402;DHT22;12539;48.808;11.292;2023-02-21T17:13:03;10.80;99.90
24402;DHT22;12539;48.808;11.292;2023-02-21T17:15:30;10.70;99.90
24402;DHT22;12539;48.808;11.292;2023-02-21T17:17:57;10.70;99.90
24402;DHT22;12539;48.808;11.292;2023-02-21T17:20:23;10.70;99.90
24402;DHT22;12539;48.808;11.292;2023-02-21T17:22:50;10.70;99.90
24402;DHT22;12539;48.808;11.292;2023-02-21T17:25:16;10.70;99.90
24402;DHT22;12539;48.808;11.292;2023-02-21T17:27:42;10.70;99.90
24402;DHT22;12539;48.808;11.292;2023-02-21T17:30:10;10.70;99.90
24402;DHT22;12539;48.808;11.292;2023-02-21T17:32:36;10.70;99.90
24402;DHT22;12539;48.808;11.292;2023-02-21T17:35:02;10.60;99.90
24402;DHT22;12539;48.808;11.292;2023-02-21T17:37:28;10.60;99.90
24402;DHT22;12539;48.808;11.292;2023-02-21T17:39:55;10.60;99.90
24402;DHT22;12539;48.808;11.292;2023-02-21T17:42:22;10.60;99.90
24402;DHT22;12539;48.808;11.292;2023-02-21T17:44:48;10.60;99.90
24402;DHT22;12539;48.808;11.292;2023-02-21T17:47:18;10.60;99.90
24402;DHT22;12539;48.808;11.292;2023-02-21T17:49:46;10.50;99.90
24402;DHT22;12539;48.808;11.292;2023-02-21T17:52:12;10.40;99.90
24402;DHT22;12539;48.808;11.292;2023-02-21T17:54:39;10.30;99.90
24402;DHT22;12539;48.808;11.292;2023-02-21T17:57:05;10.20;99.90
24402;DHT22;12539;48.808;11.292;2023-02-21T17:59:36;10.20;99.90
24402;DHT22;12539;48.808;11.292;2023-02-21T18:02:01;10.20;99.90
24402;DHT22;12539;48.808;11.292;2023-02-21T18:04:27;10.20;99.90
24402;DHT22;12539;48.808;11.292;2023-02-21T18:06:53;10.10;99.90
24402;DHT22;12539;48.808;11.292;2023-02-21T18:09:19;10.10;99.90
24402;DHT22;12539;48.808;11.292;2023-02-21T18:11:50;10.10;99.90
24402;DHT22;12539;48.808;11.292;2023-02-21T18:14:37;10.10;99.90
24402;DHT22;12539;48.808;11.292;2023-02-21T18:17:02;10.10;99.90
24402;DHT22;12539;48.808;11.292;2023-02-21T18:19:28;10.20;99.90
24402;DHT22;12539;48.808;11.292;2023-02-21T18:21:54;10.20;99.90
24402;DHT22;12539;48.808;11.292;2023-02-21T18:24:19;10.20;99.90
24402;DHT22;12539;48.808;11.292;2023-02-21T18:26:47;10.10;99.90
24402;DHT22;12539;48.808;11.292;2023-02-21T18:29:13;10.00;99.90
24402;DHT22;12539;48.808;11.292;2023-02-21T18:31:38;10.00;99.90
24402;DHT22;12539;48.808;11.292;2023-02-21T18:34:04;9.90;99.90
24402;DHT22;12539;48.808;11.292;2023-02-21T18:36:31;9.90;99.90
24402;DHT22;12539;48.808;11.292;2023-02-21T18:38:57;9.90;99.90
24402;DHT22;12539;48.808;11.292;2023-02-21T18:41:23;9.80;99.90
24402;DHT22;12539;48.808;11.292;2023-02-21T18:43:49;9.80;99.90
24402;DHT22;12539;48.808;11.292;2023-02-21T18:46:18;9.80;99.90
24402;DHT22;12539;48.808;11.292;2023-02-21T18:48:46;9.80;99.90
24402;DHT22;12539;48.808;11.292;2023-02-21T18:51:14;9.80;99.90